Time;durP1;ratioP1;P1;durP2;ratioP2;P2;SDS_P1;SDS_P2;PMS_P1;PMS_P2;Temp;Humidity;BMP_temperature;BMP_pressure;BME280_temperature;BME280_humidity;BME280_pressure;Samples;Min_cycle;Max_cycle;Signal;HPM_P1;HPM_P2
2023/07/25 01:12:01;;;;;;;5.63;3.70;;;;;;;13.38;100.00;94998.44;7419489;19;20449;-96
2023/07/25 01:15:06;;;;;;;4.10;3.70;;;;;;;14.08;100.00;95119.22;7437420;19;20387;-96
2023/07/25 01:18:08;;;;;;;3.60;3.30;;;;;;;13.60;100.00;95065.63;7436883;19;20379;-96
2023/07/25 01:24:58;;;;;;;3.90;3.43;;;;;;;14.16;100.00;95232.41;7436332;19;20359;-96
2023/07/25 01:27:57;;;;;;;3.67;3.37;;;;;;;12.06;100.00;94906.97;7436705;19;20386;-96
2023/07/25 01:30:54;;;;;;;4.73;3.37;;;;;;;12.84;100.00;95029.31;7438853;19;20353;-96
2023/07/25 01:33:54;;;;;;;5.83;3.60;;;;;;;11.89;100.00;94920.88;7439001;19;20461;-96
2023/07/25 01:36:37;;;;;;;3.97;3.30;;;;;;;11.79;100.00;94893.97;7436877;19;20379;-96
2023/07/25 01:39:13;;;;;;;4.10;3.30;;;;;;;13.28;100.00;95097.38;7437015;19;20427;-96
2023/07/25 01:42:35;;;;;;;3.53;3.23;;;;;;;13.14;100.00;95050.28;7436114;19;20386;-96
2023/07/25 01:45:34;;;;;;;6.57;4.00;;;;;;;11.87;100.00;94851.63;7439860;19;20358;-96
2023/07/25 01:55:32;;;;;;;3.20;3.00;;;;;;;12.28;100.00;94937.00;7436894;19;20327;-96
2023/07/25 01:58:47;;;;;;;3.43;3.20;;;;;;;11.98;100.00;94881.56;7436823;19;20357;-96
2023/07/25 02:07:42;;;;;;;3.40;3.10;;;;;;;12.70;100.00;95048.56;7383447;19;20448;-95
2023/07/25 02:10:14;;;;;;;5.07;4.50;;;;;;;12.82;100.00;95028.94;7437876;19;20383;-96
2023/07/25 02:13:06;;;;;;;4.00;3.60;;;;;;;12.12;100.00;94929.34;7436925;19;20400;-96
2023/07/25 02:16:20;;;;;;;4.33;3.40;;;;;;;14.16;100.00;95215.72;7434027;19;20374;-96
2023/07/25 02:19:13;;;;;;;4.70;3.70;;;;;;;12.51;100.00;94984.44;7435157;19;20360;-96
2023/07/25 02:22:35;;;;;;;3.40;3.10;;;;;;;11.48;100.00;94895.22;7434434;19;20361;-95
2023/07/25 02:25:33;;;;;;;5.80;4.30;;;;;;;11.65;100.00;94907.06;7436359;19;20402;-96
2023/07/25 02:28:17;;;;;;;;;;;;;;;;;;;;;
2023/07/25 02:31:22;;;;;;;4.87;4.43;;;;;;;12.82;100.00;95055.47;7437105;19;20376;-96
2023/07/25 02:34:33;;;;;;;3.60;3.30;;;;;;;11.55;100.00;94866.16;7433458;19;20436;-96
2023/07/25 02:37:43;;;;;;;5.90;4.03;;;;;;;14.02;100.00;95202.34;7438199;19;20397;-96
2023/07/25 02:40:44;;;;;;;4.30;3.90;;;;;;;11.78;100.00;94887.13;7438496;19;20387;-96
2023/07/25 02:44:05;;;;;;;3.60;3.30;;;;;;;14.36;100.00;95224.84;7437553;19;20389;-96
2023/07/25 02:47:17;;;;;;;6.00;4.00;;;;;;;13.03;100.00;95026.38;7431074;19;20386;-96
2023/07/25 02:50:16;;;;;;;4.10;2.97;;;;;;;11.54;100.00;94866.53;7440093;19;20347;-96
2023/07/25 02:56:36;;;;;;;4.77;3.93;;;;;;;13.08;100.00;95040.41;7438968;19;20374;-96
2023/07/25 02:59:21;;;;;;;4.70;3.87;;;;;;;14.15;100.00;95188.34;7437793;19;20365;-96
2023/07/25 03:01:51;;;;;;;5.10;4.40;;;;;;;11.95;100.00;94871.72;7433608;19;20349;-96
2023/07/25 03:04:34;;;;;;;5.57;3.50;;;;;;;13.00;100.00;95021.81;7437974;19;20416;-96
2023/07/25 03:07:08;;;;;;;4.27;3.87;;;;;;;11.64;100.00;94826.13;7433587;19;20397;-96
2023/07/25 03:10:12;;;;;;;4.93;3.53;;;;;;;13.79;100.00;95157.50;7433181;19;20369;-96
2023/07/25 03:12:56;;;;;;;4.50;4.10;;;;;;;13.01;100.00;95072.97;7437096;19;20386;-96
2023/07/25 03:16:01;;;;;;;4.13;3.73;;;;;;;12.09;100.00;94912.28;7437001;19;20434;-96
2023/07/25 03:18:55;;;;;;;4.67;3.70;;;;;;;11.56;100.00;94819.28;7433255;19;20359;-96
2023/07/25 03:22:00;;;;;;;4.20;3.53;;;;;;;11.46;100.00;94804.09;7432980;19;20375;-96
2023/07/25 03:25:08;;;;;;;3.33;3.10;;;;;;;13.61;100.00;95134.28;7435535;19;20380;-96
2023/07/25 03:28:05;;;;;;;4.63;3.60;;;;;;;12.07;100.00;94933.09;7435166;19;20384;-96
2023/07/25 03:31:10;;;;;;;4.50;3.37;;;;;;;11.10;100.00;94790.63;7434441;19;20397;-96
2023/07/25 03:33:54;;;;;;;3.50;3.20;;;;;;;10.98;100.00;94787.50;7435637;19;20413;-96
2023/07/25 03:36:39;;;;;;;3.87;3.50;;;;;;;12.37;100.00;94970.00;7436181;19;20366;-96
2023/07/25 07:10:59;;;;;;;3.60;2.97;;;;;;;16.27;100.00;94848.88;7362958;19;20444;-96
2023/07/25 07:13:59;;;;;;;3.37;2.63;;;;;;;17.38;100.00;94982.50;7434594;19;20355;-96
2023/07/25 07:17:07;;;;;;;3.20;2.90;;;;;;;16.02;100.00;94784.41;7436260;19;20395;-96
2023/07/25 07:19:53;;;;;;;4.03;2.87;;;;;;;16.10;100.00;94745.84;7436318;19;20363;-96
2023/07/25 07:22:38;;;;;;;4.57;2.80;;;;;;;16.65;100.00;94787.41;7438220;19;20359;-96
2023/07/25 07:25:36;;;;;;;3.10;2.90;;;;;;;17.22;100.00;94882.75;7436680;19;20379;-96
2023/07/25 07:28:35;;;;;;;1.80;1.70;;;;;;;18.57;100.00;95084.66;7432829;19;20376;-96
2023/07/25 07:31:24;;;;;;;4.63;2.57;;;;;;;16.25;100.00;94763.94;7436570;19;20355;-96
2023/07/25 07:34:18;;;;;;;2.97;2.33;;;;;;;16.17;100.00;94743.09;7434888;19;20403;-96
2023/07/25 07:36:49;;;;;;;2.27;2.07;;;;;;;17.21;100.00;94902.59;7432911;19;20410;-96
2023/07/25 07:39:41;;;;;;;2.47;2.27;;;;;;;17.33;100.00;94940.19;7431127;19;20393;-96
2023/07/25 07:42:18;;;;;;;3.37;2.07;;;;;;;15.83;100.00;94775.09;7432628;19;20352;-96
2023/07/25 07:45:12;;;;;;;2.50;2.30;;;;;;;18.08;100.00;95098.81;7432318;19;20372;-96
2023/07/25 07:48:06;;;;;;;2.37;2.17;;;;;;;16.67;100.00;94865.94;7436230;19;20412;-96
2023/07/25 07:51:04;;;;;;;2.60;2.40;;;;;;;16.27;100.00;94820.28;7432426;19;20376;-96
2023/07/25 07:53:57;;;;;;;2.47;2.10;;;;;;;18.08;100.00;95091.53;7432094;19;20354;-96
2023/07/25 07:56:38;;;;;;;2.07;1.97;;;;;;;16.05;100.00;94813.72;7432370;19;20368;-96
2023/07/25 07:59:34;;;;;;;5.70;2.00;;;;;;;15.48;100.00;94752.97;7430632;19;20390;-96
2023/07/25 08:02:38;;;;;;;2.83;2.23;;;;;;;16.49;100.00;94940.84;7437034;19;20344;-96
2023/07/25 08:05:25;;;;;;;2.90;2.03;;;;;;;15.31;100.00;94778.63;7431510;19;20376;-96
2023/07/25 08:07:57;;;;;;;3.10;2.90;;;;;;;17.52;100.00;95131.22;7435005;19;20450;-95
2023/07/25 08:10:49;;;;;;;2.57;2.37;;;;;;;17.02;100.00;95105.06;7435791;19;20374;-96
2023/07/25 08:13:40;;;;;;;2.77;2.57;;;;;;;17.25;100.00;95112.44;7431677;19;20368;-96
2023/07/25 08:16:25;;;;;;;3.07;2.60;;;;;;;16.32;100.00;94970.38;7431806;19;20355;-96
2023/07/25 08:19:21;;;;;;;3.63;3.33;;;;;;;14.79;100.00;94749.38;7429893;19;20399;-96
2023/07/25 08:22:29;;;;;;;3.20;2.53;;;;;;;15.30;100.00;94886.28;7435183;19;20372;-96
2023/07/25 08:25:30;;;;;;;3.00;2.70;;;;;;;16.90;100.00;95105.56;7430858;19;20362;-96
2023/07/25 08:31:29;;;;;;;3.93;2.63;;;;;;;15.91;100.00;94958.56;7431748;19;20315;-96
2023/07/25 08:38:00;;;;;;;4.17;2.67;;;;;;;15.15;100.00;94810.34;7430901;19;20392;-95
2023/07/25 08:41:23;;;;;;;2.20;2.00;;;;;;;17.43;100.00;95104.22;7430477;19;20355;-96
2023/07/25 08:45:09;;;;;;;2.70;2.50;;;;;;;17.50;100.00;95098.78;7430900;19;20369;-96
2023/07/25 08:47:56;;;;;;;2.93;2.20;;;;;;;15.54;100.00;94795.94;7429291;19;20410;-96
2023/07/25 08:51:01;;;;;;;3.47;2.73;;;;;;;15.71;100.00;94808.34;7430612;19;20383;-96
2023/07/25 08:54:03;;;;;;;3.37;2.27;;;;;;;17.98;100.00;95097.78;7430423;19;20355;-96
2023/07/25 08:56:58;;;;;;;2.63;2.43;;;;;;;15.69;100.00;94769.94;7430617;19;20364;-96
2023/07/25 08:59:49;;;;;;;2.53;2.33;;;;;;;17.99;100.00;95099.31;7430210;19;20433;-96
2023/07/25 09:02:42;;;;;;;2.63;2.43;;;;;;;15.74;100.00;94766.81;7430080;19;20374;-96
2023/07/25 09:06:02;;;;;;;2.40;2.20;;;;;;;16.35;100.00;94897.56;7429637;19;20401;-96
2023/07/25 09:09:04;;;;;;;3.00;2.70;;;;;;;15.40;100.00;94762.19;7428660;19;20404;-96
2023/07/25 09:11:59;;;;;;;2.57;2.37;;;;;;;16.45;100.00;94931.38;7429564;19;20356;-95
2023/07/25 09:14:59;;;;;;;3.17;2.50;;;;;;;17.66;100.00;95098.22;7429805;19;20366;-96
2023/07/25 09:17:55;;;;;;;3.60;2.40;;;;;;;15.87;100.00;94827.22;7431879;19;20412;-96
2023/07/25 09:21:23;;;;;;;2.93;2.70;;;;;;;15.53;100.00;94779.19;7438128;19;20380;-96
2023/07/25 09:24:16;;;;;;;4.40;2.13;;;;;;;15.69;100.00;94813.31;7437046;19;20355;-96
2023/07/25 09:26:59;;;;;;;4.20;2.70;;;;;;;17.18;100.00;95045.72;7434780;19;20347;-96
2023/07/25 09:29:57;;;;;;;2.50;2.30;;;;;;;16.55;100.00;94965.94;7440476;19;20371;-96
2023/07/25 09:32:32;;;;;;;4.30;2.60;;;;;;;15.17;100.00;94784.06;7438402;19;20384;-96
2023/07/25 09:35:48;;;;;;;4.30;3.20;;;;;;;16.39;100.00;94968.38;7441182;19;20422;-96
2023/07/25 09:38:55;;;;;;;4.40;4.00;;;;;;;16.03;100.00;94919.25;7436182;19;20418;-96
2023/07/25 09:41:45;;;;;;;3.63;3.33;;;;;;;17.11;100.00;95109.94;7437336;19;20351;-96
2023/07/25 10:24:16;;;;;;;3.30;2.50;;;;;;;13.40;100.00;94915.78;7435829;19;20492;-95
2023/07/25 10:26:58;;;;;;;3.80;2.30;;;;;;;14.13;100.00;94996.56;7433066;19;20373;-96
2023/07/25 10:29:46;;;;;;;5.53;2.20;;;;;;;14.04;100.00;94987.50;7433527;19;20444;-96
2023/07/25 10:32:20;;;;;;;2.97;2.20;;;;;;;13.78;100.00;94973.44;7432655;19;20374;-96
2023/07/25 10:36:21;;;;;;;2.93;2.63;;;;;;;13.21;100.00;94924.84;7431855;19;20425;-95
2023/07/25 10:39:50;;;;;;;5.93;5.33;;;;;;;13.09;100.00;94870.22;7433967;19;20401;-96
2023/07/25 10:42:54;;;;;;;2.37;2.17;;;;;;;14.38;100.00;95086.19;7431042;19;20429;-94
2023/07/25 10:46:09;;;;;;;2.90;2.07;;;;;;;13.36;100.00;94881.25;7431021;19;20394;-96
2023/07/25 10:48:59;;;;;;;2.27;2.07;;;;;;;15.07;100.00;95089.13;7434023;19;20410;-95
2023/07/25 10:52:05;;;;;;;1.87;1.63;;;;;;;13.86;100.00;94876.66;7432648;19;20438;-96
2023/07/25 10:55:16;;;;;;;4.10;2.30;;;;;;;14.47;100.00;94941.09;7432214;19;20434;-96
2023/07/25 10:58:19;;;;;;;2.10;1.83;;;;;;;14.68;100.00;94948.22;7433436;19;20378;-96
2023/07/25 11:01:05;;;;;;;2.70;2.37;;;;;;;14.78;100.00;94959.97;7433138;19;20421;-96
2023/07/25 11:03:48;;;;;;;1.70;1.50;;;;;;;14.96;100.00;94968.66;7430359;19;20401;-95
2023/07/25 11:06:38;;;;;;;2.60;1.80;;;;;;;15.89;100.00;95096.03;7429624;19;20407;-93
2023/07/25 11:09:11;;;;;;;1.80;1.70;;;;;;;15.87;100.00;95096.41;7434194;19;20383;-96
2023/07/25 11:11:49;;;;;;;2.43;1.70;;;;;;;15.22;100.00;95007.31;7431425;19;20402;-94
2023/07/25 11:14:23;;;;;;;2.20;2.00;;;;;;;15.30;100.00;95000.81;7432418;19;20735;-96
2023/07/25 11:16:52;;;;;;;1.70;1.60;;;;;;;15.34;100.00;94992.78;7432316;19;20430;-95
2023/07/25 11:19:26;;;;;;;2.13;1.93;;;;;;;15.27;100.00;94976.88;7430971;19;20392;-95
2023/07/25 11:22:10;;;;;;;2.80;1.87;;;;;;;14.66;100.00;94865.41;7432798;19;20407;-96
2023/07/25 11:24:47;;;;;;;2.80;2.20;;;;;;;15.08;100.00;94912.28;7430544;19;20426;-95
2023/07/25 11:27:25;;;;;;;2.60;1.70;;;;;;;16.77;100.00;95075.94;7427453;19;20398;-95
2023/07/25 11:30:21;;;;;;;2.00;1.80;;;;;;;15.94;100.00;94909.03;7432725;19;20396;-94
2023/07/25 11:32:58;;;;;;;2.10;1.97;;;;;;;15.80;100.00;94938.47;7431795;19;20383;-94
2023/07/25 11:35:30;;;;;;;1.93;1.80;;;;;;;16.59;100.00;94967.81;7430770;19;20433;-95
2023/07/25 11:38:03;;;;;;;2.10;1.90;;;;;;;17.31;100.00;94993.28;7431984;19;20386;-95
2023/07/25 11:40:43;;;;;;;2.17;2.00;;;;;;;17.27;100.00;95013.97;7429611;19;20390;-95
2023/07/25 11:43:20;;;;;;;2.00;1.90;;;;;;;16.90;100.00;94987.31;7427275;19;20403;-93
2023/07/25 11:45:54;;;;;;;2.07;1.97;;;;;;;16.74;100.00;94947.84;7428686;19;20374;-94
2023/07/25 11:48:23;;;;;;;2.00;1.90;;;;;;;16.39;100.00;94871.59;7430808;19;20399;-94
2023/07/25 11:50:53;;;;;;;2.23;1.47;;;;;;;17.58;100.00;94971.91;7430530;19;20391;-94
2023/07/25 11:53:33;;;;;;;3.13;2.30;;;;;;;18.02;100.00;94935.34;7430091;19;20380;-95
2023/07/25 11:56:23;;;;;;;1.60;1.43;;;;;;;17.79;100.00;94936.13;7426016;19;20396;-94
2023/07/25 11:58:51;;;;;;;1.60;1.50;;;;;;;17.95;100.00;94927.44;7430326;19;20400;-94
2023/07/25 12:01:33;;;;;;;1.77;1.63;;;;;;;18.94;100.00;94999.09;7432546;19;20799;-94
2023/07/25 12:04:15;;;;;;;2.00;1.90;;;;;;;18.02;100.00;94978.88;7431256;19;20417;-93
2023/07/25 12:07:01;;;;;;;4.07;1.50;;;;;;;17.97;100.00;94949.94;7419008;19;20375;-92
2023/07/25 12:09:31;;;;;;;3.17;1.50;;;;;;;17.35;100.00;94865.75;7420978;19;20732;-92
2023/07/25 12:11:59;;;;;;;1.90;1.67;;;;;;;17.32;100.00;94895.19;7417256;19;20395;-93
2023/07/25 12:14:33;;;;;;;3.30;2.20;;;;;;;18.20;100.00;95048.16;7413062;19;20423;-92
2023/07/25 12:17:05;;;;;;;2.30;2.00;;;;;;;17.70;100.00;94984.75;7412697;19;20372;-93
2023/07/25 12:19:52;;;;;;;1.50;1.30;;;;;;;18.08;100.00;95038.03;7407795;19;20376;-93
2023/07/25 12:22:44;;;;;;;2.40;2.20;;;;;;;17.28;100.00;94915.88;7407900;19;20391;-93
2023/07/25 12:25:21;;;;;;;1.90;1.80;;;;;;;17.23;100.00;94892.25;7411131;19;20431;-94
2023/07/25 12:28:00;;;;;;;2.53;1.93;;;;;;;17.38;100.00;94909.63;7403936;19;20384;-94
2023/07/25 12:30:30;;;;;;;1.73;1.50;;;;;;;17.65;100.00;94907.66;7412246;19;20376;-93
2023/07/25 12:33:05;;;;;;;2.07;1.73;;;;;;;17.68;100.00;94885.50;7406280;19;20422;-92
2023/07/25 12:35:52;;;;;;;2.30;2.10;;;;;;;18.87;100.00;95005.34;7403660;19;20415;-94
2023/07/25 12:38:34;;;;;;;2.50;1.70;;;;;;;18.00;100.00;94911.69;7409219;19;20397;-93
2023/07/25 12:41:04;;;;;;;3.30;2.50;;;;;;;18.48;100.00;94913.13;7409975;19;20385;-93
2023/07/25 12:43:34;;;;;;;2.67;2.00;;;;;;;18.46;100.00;94861.91;7393946;19;20459;-91
2023/07/25 12:46:08;;;;;;;2.27;2.07;;;;;;;16.99;100.00;94708.00;7396288;19;20515;-91
2023/07/25 12:48:42;;;;;;;3.43;2.10;;;;;;;17.34;100.00;94738.66;7399929;19;20392;-90
2023/07/25 12:51:25;;;;;;;2.87;2.30;;;;;;;17.57;100.00;94794.00;7393963;19;20496;-90
2023/07/25 12:53:53;;;;;;;4.60;2.30;;;;;;;17.56;100.00;94792.50;7397018;19;20372;-90
2023/07/25 12:56:26;;;;;;;2.20;2.10;;;;;;;18.08;100.00;94860.75;7396985;19;20390;-91
2023/07/25 12:58:54;;;;;;;3.20;1.90;;;;;;;17.63;100.00;94811.09;7411654;19;20383;-91
2023/07/25 13:01:22;;;;;;;4.30;2.43;;;;;;;17.28;100.00;94791.06;7425254;19;20471;-91
2023/07/25 13:03:49;;;;;;;2.43;2.27;;;;;;;16.73;100.00;94738.91;7422509;19;20378;-91
2023/07/25 13:06:19;;;;;;;2.30;2.10;;;;;;;17.69;100.00;94870.19;7405528;19;20436;-91
2023/07/25 13:08:47;;;;;;;3.90;2.70;;;;;;;18.20;100.00;94932.38;7408042;19;20384;-91
2023/07/25 13:11:14;;;;;;;2.80;2.40;;;;;;;18.79;100.00;95018.13;7419707;19;20413;-91
2023/07/25 13:13:42;;;;;;;2.40;2.20;;;;;;;18.01;100.00;94877.66;7416773;19;20380;-91
2023/07/25 13:16:09;;;;;;;2.50;2.07;;;;;;;17.99;100.00;94883.41;7411346;19;20372;-91
2023/07/25 13:18:36;;;;;;;2.93;2.73;;;;;;;17.56;100.00;94842.53;7412907;19;20421;-91
2023/07/25 13:21:07;;;;;;;2.43;2.23;;;;;;;16.76;100.00;94710.66;7393868;19;20460;-91
2023/07/25 13:23:34;;;;;;;2.90;2.57;;;;;;;16.78;100.00;94716.34;7394758;19;20379;-91
2023/07/25 13:26:02;;;;;;;3.40;2.47;;;;;;;18.35;100.00;94841.88;7395654;19;20380;-91
2023/07/25 13:28:29;;;;;;;2.30;2.10;;;;;;;17.38;100.00;94765.34;7393207;19;20392;-91
2023/07/25 13:30:56;;;;;;;2.37;2.17;;;;;;;17.93;100.00;94890.41;7394202;19;20408;-91
2023/07/25 13:33:23;;;;;;;2.37;2.17;;;;;;;17.40;100.00;94840.50;7396976;19;20895;-91
2023/07/25 13:35:51;;;;;;;3.50;3.10;;;;;;;17.60;100.00;94872.59;7401840;19;20365;-91
2023/07/25 13:38:18;;;;;;;2.73;2.53;;;;;;;17.81;100.00;94884.91;7422863;19;20384;-92
2023/07/25 13:40:45;;;;;;;3.73;2.13;;;;;;;17.11;100.00;94795.53;7425571;19;20427;-91
2023/07/25 13:43:13;;;;;;;2.40;2.20;;;;;;;17.71;100.00;94879.31;7401799;19;20463;-91
2023/07/25 13:45:40;;;;;;;2.70;2.50;;;;;;;17.33;100.00;94841.34;7395257;19;20396;-91
2023/07/25 13:48:18;;;;;;;2.73;2.53;;;;;;;17.24;100.00;94862.50;7393296;19;20379;-91
2023/07/25 13:50:46;;;;;;;2.00;1.80;;;;;;;17.17;100.00;94883.22;7391261;19;20423;-91
2023/07/25 13:53:21;;;;;;;2.60;2.40;;;;;;;16.86;100.00;94893.94;7394827;19;20379;-91
2023/07/25 13:55:48;;;;;;;2.40;2.00;;;;;;;16.66;100.00;94861.72;7392847;19;20371;-92
2023/07/25 13:58:16;;;;;;;2.90;2.37;;;;;;;16.41;100.00;94853.28;7393160;19;20392;-91
2023/07/25 14:00:46;;;;;;;2.83;2.20;;;;;;;17.41;100.00;94970.25;7392468;19;20828;-91
2023/07/25 14:03:13;;;;;;;2.40;2.20;;;;;;;17.03;100.00;94957.00;7394321;19;20379;-92
2023/07/25 14:05:41;;;;;;;1.90;1.80;;;;;;;16.16;100.00;94858.91;7397117;19;20379;-92
2023/07/25 14:08:14;;;;;;;2.57;2.33;;;;;;;15.06;100.00;94736.25;7398493;19;20375;-91
2023/07/25 14:10:42;;;;;;;2.17;1.97;;;;;;;15.21;100.00;94906.50;7399319;19;20758;-91
2023/07/25 14:13:50;;;;;;;3.50;2.63;;;;;;;15.41;100.00;95000.00;7401873;19;20378;-91
2023/07/25 14:17:03;;;;;;;3.13;1.70;;;;;;;14.15;100.00;94847.34;7398680;19;20394;-91
2023/07/25 14:19:36;;;;;;;4.57;2.13;;;;;;;14.45;100.00;94876.16;7397731;19;20414;-91
2023/07/25 14:26:03;;;;;;;2.17;1.70;;;;;;;12.38;100.00;94737.50;7397528;19;20408;-92
2023/07/25 14:29:03;;;;;;;;;;;;;;;;;;;;;
2023/07/25 14:31:58;;;;;;;2.47;1.70;;;;;;;11.83;100.00;94729.81;7399966;19;20726;-92
2023/07/25 14:34:39;;;;;;;2.10;1.93;;;;;;;12.59;100.00;94914.44;7416854;19;20472;-92
2023/07/25 14:37:09;;;;;;;2.27;1.37;;;;;;;12.05;100.00;94799.50;7422849;19;20400;-92
2023/07/25 14:40:00;;;;;;;1.83;1.73;;;;;;;11.65;100.00;94726.31;7422482;19;20404;-91
2023/07/25 14:42:38;;;;;;;3.37;2.53;;;;;;;12.93;100.00;94904.28;7420704;19;20416;-91
2023/07/25 14:45:16;;;;;;;5.43;2.77;;;;;;;13.03;100.00;94861.88;7418308;19;20417;-92
2023/07/25 14:48:16;;;;;;;6.00;3.10;;;;;;;12.10;100.00;94746.16;7410157;19;20867;-91
2023/07/25 14:54:30;;;;;;;3.67;2.03;;;;;;;13.80;100.00;95029.63;7399205;19;20357;-91
2023/07/25 14:57:30;;;;;;;4.70;2.20;;;;;;;12.94;100.00;94879.28;7398465;19;20420;-92
2023/07/25 15:00:01;;;;;;;3.57;1.90;;;;;;;13.16;100.00;94886.13;7399288;19;20478;-92
2023/07/25 15:02:31;;;;;;;4.67;2.53;;;;;;;14.08;100.00;95039.50;7400470;19;20408;-91
2023/07/25 15:04:59;;;;;;;4.37;2.23;;;;;;;13.10;100.00;94892.97;7401176;19;20383;-91
2023/07/25 15:07:27;;;;;;;6.00;3.00;;;;;;;12.06;100.00;94753.34;7400368;19;20383;-92
2023/07/25 15:09:54;;;;;;;2.30;1.73;;;;;;;11.59;100.00;94691.47;7406227;19;20408;-92
2023/07/25 15:12:22;;;;;;;4.07;2.47;;;;;;;13.35;100.00;94906.25;7405282;19;20901;-92
2023/07/25 15:14:52;;;;;;;2.50;1.80;;;;;;;12.24;100.00;94717.06;7407686;19;20383;-91
2023/07/25 15:17:21;;;;;;;6.07;2.90;;;;;;;12.76;100.00;94736.03;7408436;19;20457;-91
2023/07/25 15:19:57;;;;;;;3.80;2.83;;;;;;;13.63;100.00;94878.22;7407725;19;20422;-92
2023/07/25 15:22:24;;;;;;;2.90;2.30;;;;;;;14.04;100.00;94846.66;7414270;19;20383;-92
2023/07/25 15:24:53;;;;;;;2.97;2.27;;;;;;;14.51;100.00;94935.75;7414116;19;20923;-91
2023/07/25 15:27:20;;;;;;;5.83;3.00;;;;;;;15.42;100.00;94999.59;7418208;19;20421;-91
2023/07/25 15:29:49;;;;;;;6.13;2.87;;;;;;;14.61;100.00;94790.56;7416892;19;21021;-91
2023/07/25 15:32:17;;;;;;;2.33;2.13;;;;;;;13.64;100.00;94686.63;7419235;19;21003;-90
2023/07/25 15:34:44;;;;;;;3.03;2.83;;;;;;;15.94;100.00;94949.78;7411024;19;20379;-91
2023/07/25 15:37:12;;;;;;;2.83;2.33;;;;;;;14.44;100.00;94725.72;7409770;19;20795;-91
2023/07/25 15:39:39;;;;;;;3.23;2.90;;;;;;;17.06;100.00;94971.47;7417885;19;20405;-92
2023/07/25 15:42:07;;;;;;;2.80;2.30;;;;;;;16.30;100.00;94812.66;7416026;19;20423;-91
2023/07/25 15:44:34;;;;;;;3.37;2.60;;;;;;;17.97;100.00;94917.84;7414389;19;20378;-91
2023/07/25 15:47:04;;;;;;;2.20;2.00;;;;;;;18.24;100.00;94922.34;7413211;19;20370;-91
2023/07/25 15:49:31;;;;;;;4.23;2.90;;;;;;;17.56;100.00;94773.03;7412547;19;20397;-91
2023/07/25 15:51:59;;;;;;;6.23;2.60;;;;;;;17.77;100.00;94935.00;7415439;19;20392;-91
2023/07/25 15:54:27;;;;;;;4.50;2.00;;;;;;;17.43;100.00;94909.16;7411887;19;20385;-91
2023/07/25 15:56:54;;;;;;;2.00;1.80;;;;;;;17.70;100.00;94954.59;7409045;19;20387;-91
2023/07/25 15:59:22;;;;;;;1.67;1.57;;;;;;;16.97;100.00;94838.47;7405113;19;20382;-91
2023/07/25 16:01:49;;;;;;;2.53;2.17;;;;;;;18.14;100.00;94950.03;7405300;19;20705;-91
2023/07/25 16:04:19;;;;;;;2.93;2.20;;;;;;;17.68;100.00;94872.13;7407643;19;20377;-90
2023/07/25 16:06:47;;;;;;;2.20;2.00;;;;;;;17.37;100.00;94843.97;7406079;19;20408;-91
2023/07/25 16:09:14;;;;;;;2.60;2.40;;;;;;;16.94;100.00;94793.13;7407693;19;20402;-91
2023/07/25 16:11:42;;;;;;;4.63;1.90;;;;;;;17.21;100.00;94830.47;7406776;19;20443;-91
2023/07/25 16:14:09;;;;;;;2.70;2.27;;;;;;;16.35;100.00;94774.88;7406097;19;20383;-91
2023/07/25 16:16:38;;;;;;;4.07;2.30;;;;;;;16.51;100.00;94804.38;7417590;19;20403;-92
2023/07/25 16:19:06;;;;;;;2.87;2.00;;;;;;;17.09;100.00;94963.44;7426635;19;20410;-92
2023/07/25 16:21:34;;;;;;;7.20;2.60;;;;;;;16.01;100.00;94810.31;7426248;19;20407;-91
2023/07/25 16:24:01;;;;;;;3.63;2.13;;;;;;;16.81;100.00;95001.13;7411859;19;20392;-90
2023/07/25 16:26:29;;;;;;;1.77;1.67;;;;;;;15.98;100.00;94859.09;7404396;19;20418;-91
2023/07/25 16:28:57;;;;;;;2.27;2.13;;;;;;;15.50;100.00;94792.56;7410522;19;20399;-90
2023/07/25 16:31:25;;;;;;;3.77;2.37;;;;;;;15.41;100.00;94763.72;7409473;19;20391;-91
2023/07/25 16:33:56;;;;;;;4.40;2.30;;;;;;;15.22;100.00;94817.50;7413985;19;20390;-92
2023/07/25 16:36:35;;;;;;;2.47;2.27;;;;;;;14.96;100.00;94840.16;7407777;19;20394;-92
2023/07/25 16:39:09;;;;;;;2.00;1.90;;;;;;;14.04;100.00;94692.50;7402765;19;20390;-92
2023/07/25 16:42:04;;;;;;;1.90;1.80;;;;;;;13.81;100.00;94703.63;7402153;19;20395;-92
2023/07/25 16:44:54;;;;;;;5.03;2.20;;;;;;;13.46;100.00;94686.66;7403078;19;20386;-92
2023/07/25 16:47:41;;;;;;;2.37;2.03;;;;;;;15.29;100.00;94954.03;7409305;19;20471;-92
2023/07/25 16:50:18;;;;;;;2.70;2.50;;;;;;;14.77;100.00;94882.06;7431976;19;20433;-90
2023/07/25 16:52:48;;;;;;;2.03;1.87;;;;;;;14.61;100.00;94828.56;7426791;19;20429;-92
2023/07/25 16:55:27;;;;;;;4.03;2.53;;;;;;;14.16;100.00;94698.13;7401378;19;20369;-91
2023/07/25 16:58:07;;;;;;;2.77;2.00;;;;;;;14.41;100.00;94755.69;7402211;19;20744;-91
2023/07/25 17:00:48;;;;;;;2.33;2.10;;;;;;;15.65;100.00;94940.50;7398391;19;20720;-92
2023/07/25 17:03:27;;;;;;;2.20;2.00;;;;;;;14.99;100.00;94856.09;7396385;19;20380;-92
2023/07/25 17:06:03;;;;;;;2.53;2.10;;;;;;;15.10;100.00;94874.66;7396723;19;20902;-91
2023/07/25 17:08:33;;;;;;;3.37;1.80;;;;;;;14.13;100.00;94829.13;7393914;19;20406;-91
2023/07/25 22:05:58;;;;;;;5.67;4.10;;;;;;;10.20;100.00;95289.31;7438016;19;20416;-96
2023/07/25 22:08:35;;;;;;;4.17;3.70;;;;;;;9.29;100.00;95136.72;7435969;19;20399;-95
2023/07/25 22:11:09;;;;;;;5.20;3.60;;;;;;;9.57;100.00;95213.03;7438959;19;20360;-96
2023/07/25 22:13:40;;;;;;;6.77;4.00;;;;;;;10.77;100.00;95393.47;7438073;19;20359;-95
2023/07/25 22:16:14;;;;;;;4.13;3.80;;;;;;;9.52;100.00;95229.91;7438233;19;20428;-96
2023/07/25 22:18:57;;;;;;;3.50;3.20;;;;;;;9.50;100.00;95244.56;7438594;19;20380;-96
2023/07/25 22:21:33;;;;;;;4.80;3.37;;;;;;;8.98;100.00;95154.19;7438109;19;20466;-95
2023/07/25 22:24:23;;;;;;;3.47;3.17;;;;;;;9.71;100.00;95234.44;7436428;19;20392;-94
2023/07/25 22:26:56;;;;;;;4.23;3.60;;;;;;;9.33;100.00;95203.50;7434669;19;20423;-95
2023/07/25 22:29:24;;;;;;;5.93;3.70;;;;;;;9.77;100.00;95270.00;7434715;19;20416;-95
2023/07/25 22:31:57;;;;;;;4.00;3.70;;;;;;;9.96;100.00;95295.66;7438221;19;20368;-96
2023/07/25 22:34:27;;;;;;;4.23;3.87;;;;;;;9.98;100.00;95296.81;7436708;19;20368;-96
2023/07/25 22:36:57;;;;;;;5.10;4.23;;;;;;;10.21;100.00;95349.75;7436865;19;20430;-96
2023/07/25 22:39:27;;;;;;;3.77;3.57;;;;;;;8.85;100.00;95121.91;7437099;19;20389;-95
2023/07/25 22:42:18;;;;;;;3.77;3.50;;;;;;;8.72;100.00;95138.94;7438824;19;20359;-94
2023/07/25 22:44:51;;;;;;;4.83;4.10;;;;;;;10.88;100.00;95468.47;7437270;19;20358;-95
2023/07/25 22:47:21;;;;;;;5.37;4.17;;;;;;;9.62;100.00;95261.03;7433688;19;20412;-95
2023/07/25 22:49:52;;;;;;;7.40;3.83;;;;;;;9.81;100.00;95331.56;7435752;19;20393;-95
2023/07/25 22:52:22;;;;;;;5.40;4.27;;;;;;;9.52;100.00;95271.38;7436390;19;20355;-95
2023/07/25 22:55:00;;;;;;;11.43;4.80;;;;;;;9.57;100.00;95277.13;7438204;19;20689;-94
